Weather at Hector International Airport

Public forecast

Using degrees Fahrenheit for public forecast. Weather courtesy of forecast.io.

Current aviation weather report (METAR) for Hector International Airport

Retrieved 2021/07/29 23:53 UTC (45 minutes ago):

KFAR 292353Z 03007KT 8SM FU CLR 27/08 A3014 RMK AO2 SLP205 T02670083 10289 20244 58007

Aviation forecast (TAF) for Hector International Airport

Retrieved 2021-07-30 00:33 UTC (5 minutes ago):

TAF KFAR 292331Z 3000/3024 01006KT 6SM FU BKN250 FM300200 VRB04KT P6SM BKN250 FM301600 23010KT P6SM FEW200